CDT,Max TemperatureF,Mean TemperatureF,Min TemperatureF,Max Dew PointF,MeanDew PointF,Min DewpointF,Max Humidity, Mean Humidity, Min Humidity, Max Sea Level PressureIn, Mean Sea Level PressureIn, Min Sea Level PressureIn, Max VisibilityMiles, Mean VisibilityMiles, Min VisibilityMiles, Max Wind SpeedMPH, Mean Wind SpeedMPH, Max Gust SpeedMPH,PrecipitationIn, CloudCover, Events, WindDirDegrees
2013-6-1,59,54,49,54,49,44,93,80,67,30.09,29.82,29.65,10,8,2,33,19,45,T,7,Rain,309
2013-6-2,68,56,43,46,43,40,100,68,35,30.15,30.09,30.00,10,10,10,13,6,21,0.00,1,,349
2013-6-3,76,62,47,52,47,43,86,61,36,30.00,29.89,29.76,10,10,10,30,16,37,0.00,0,,146
2013-6-4,74,65,56,59,56,53,87,72,57,30.04,29.91,29.81,10,10,5,21,8,28,0.01,4,Rain,55
2013-6-5,68,61,53,56,48,44,87,66,45,30.08,30.04,30.00,10,10,7,20,11,26,0.01,4,,317
2013-6-6,70,60,49,52,50,46,93,69,44,30.04,30.01,29.98,10,10,10,18,8,22,0.00,5,,327
2013-6-7,76,60,44,50,47,43,100,68,35,30.05,29.97,29.83,10,9,5,15,5,20,0.00,1,,134
2013-6-8,67,63,59,63,57,48,97,79,60,29.81,29.70,29.62,10,9,2,26,14,35,0.27,6,Rain,180
2013-6-9,69,62,55,58,56,54,87,74,61,29.88,29.77,29.68,10,10,10,28,15,37,T,7,Rain,306
2013-6-10,83,65,46,64,55,46,100,72,43,29.88,29.84,29.76,10,7,0,16,8,21,0.00,0,Fog,166
2013-6-11,87,76,65,71,66,62,93,72,51,29.79,29.72,29.65,10,10,10,26,10,37,0.05,0,,101
2013-6-12,79,68,57,68,62,53,90,70,50,30.08,29.81,29.62,10,10,6,30,14,37,T,3,Rain-Thunderstorm,348
2013-6-13,76,65,54,61,54,51,100,73,46,30.12,30.07,29.99,10,10,10,13,5,16,0.02,1,Rain-Thunderstorm,104
2013-6-14,93,78,62,72,62,53,87,66,44,30.01,29.83,29.68,10,10,7,33,12,45,0.11,2,Rain-Thunderstorm,154
2013-6-15,83,74,64,65,63,61,93,74,54,29.96,29.88,29.80,10,10,7,31,7,39,0.03,1,Rain-Thunderstorm,29
2013-6-16,84,72,59,61,56,48,100,71,42,30.01,29.97,29.93,10,9,2,22,5,26,T,1,Rain-Thunderstorm,207
2013-6-17,85,70,54,58,54,52,93,64,34,30.04,30.00,29.96,10,10,10,15,5,20,0.00,0,,319
2013-6-18,82,70,57,61,56,53,93,66,39,30.08,30.02,29.96,10,10,8,13,4,16,0.03,3,Rain-Thunderstorm,126
2013-6-19,88,74,60,65,61,56,90,68,45,29.98,29.91,29.83,10,10,10,23,12,30,0.00,1,,150
2013-6-20,90,80,69,71,66,59,84,67,50,29.88,29.80,29.74,10,10,10,25,15,32,0.00,3,,157
2013-6-21,97,86,75,71,67,60,82,56,30,29.78,29.73,29.69,10,10,10,33,17,45,T,0,,168
2013-6-22,85,75,65,71,65,56,100,80,59,29.99,29.84,29.65,10,9,4,29,13,41,0.51,5,Rain-Thunderstorm,99
2013-6-23,83,73,62,67,61,55,93,70,47,29.93,29.84,29.67,10,10,6,33,7,41,0.21,3,Rain-Thunderstorm,260
2013-6-24,84,77,69,72,69,66,97,81,65,29.90,29.79,29.70,10,8,2,28,11,36,0.10,5,Rain-Thunderstorm,144
2013-6-25,85,77,68,74,65,54,94,70,46,29.77,29.70,29.65,10,10,7,24,9,30,0.08,5,Rain-Thunderstorm,147
2013-6-26,91,80,68,71,63,57,100,66,32,29.86,29.81,29.68,10,9,4,16,6,20,0.00,0,,299
2013-6-27,87,77,67,68,65,62,90,68,45,30.04,29.97,29.87,10,8,2,10,4,25,0.75,4,Rain-Thunderstorm,23
2013-6-28,84,74,64,65,58,54,87,62,37,30.03,29.98,29.94,10,10,10,26,13,35,0.00,1,,317
2013-6-29,81,71,61,58,55,54,84,63,42,29.99,29.96,29.94,10,10,10,32,15,40,0.00,2,,327
2013-6-30,77,66,54,58,53,47,93,65,36,30.15,30.08,30.01,10,10,9,18,6,24,0.00,1,,360